Time;durP1;ratioP1;P1;durP2;ratioP2;P2;SDS_P1;SDS_P2;PMS_P1;PMS_P2;Temp;Humidity;BMP_temperature;BMP_pressure;BME280_temperature;BME280_humidity;BME280_pressure;Samples;Min_cycle;Max_cycle;Signal;HPM_P1;HPM_P2
2021/11/24 00:00:54;;;;;;;40.58;20.70;;;5.80;99.90;;;;;;5074681;28;20354;-66
2021/11/24 00:03:22;;;;;;;42.83;22.38;;;5.90;99.90;;;;;;5074305;28;20058;-65
2021/11/24 00:05:48;;;;;;;48.30;21.60;;;6.10;99.90;;;;;;5074176;28;20025;-67
2021/11/24 00:08:14;;;;;;;40.55;20.60;;;6.00;99.90;;;;;;5056400;28;20043;-65
2021/11/24 00:10:40;;;;;;;40.15;20.17;;;6.00;99.90;;;;;;5073180;28;20120;-66
2021/11/24 00:13:08;;;;;;;48.65;21.63;;;5.90;99.90;;;;;;5074667;28;20461;-66
2021/11/24 00:15:36;;;;;;;45.20;21.38;;;5.90;99.90;;;;;;5074244;28;20102;-67
2021/11/24 00:18:02;;;;;;;41.53;21.67;;;5.90;99.90;;;;;;5074110;28;20031;-67
2021/11/24 00:20:28;;;;;;;43.83;21.25;;;5.90;99.90;;;;;;5073839;28;20418;-66
2021/11/24 00:22:54;;;;;;;42.03;21.30;;;5.80;99.90;;;;;;5073798;28;20116;-65
2021/11/24 00:25:19;;;;;;;39.95;20.15;;;5.80;99.90;;;;;;5073761;28;20090;-66
2021/11/24 00:27:47;;;;;;;41.53;20.30;;;5.80;99.90;;;;;;5074150;28;20028;-64
2021/11/24 00:30:15;;;;;;;40.65;23.05;;;5.80;99.90;;;;;;5067555;28;20033;-66
2021/11/24 00:32:40;;;;;;;44.53;20.50;;;5.80;99.90;;;;;;5067515;28;20048;-66
2021/11/24 00:35:07;;;;;;;44.97;22.77;;;5.80;99.90;;;;;;5073939;28;20024;-66
2021/11/24 00:37:36;;;;;;;41.72;19.95;;;5.80;99.90;;;;;;5073571;28;20032;-66
2021/11/24 00:40:04;;;;;;;38.90;19.15;;;5.80;99.90;;;;;;5073341;28;20024;-67
2021/11/24 00:42:32;;;;;;;38.10;20.40;;;5.80;99.90;;;;;;5073665;28;20429;-67
2021/11/24 00:45:00;;;;;;;42.00;20.95;;;5.80;99.90;;;;;;5073470;28;20024;-67
2021/11/24 00:47:28;;;;;;;37.47;19.40;;;5.80;99.90;;;;;;5049009;28;20028;-67
2021/11/24 00:49:53;;;;;;;36.53;19.08;;;5.70;99.90;;;;;;5073453;28;20107;-67
2021/11/24 00:52:19;;;;;;;38.03;19.67;;;5.70;99.90;;;;;;5073326;28;20079;-67
2021/11/24 00:54:47;;;;;;;35.03;19.90;;;5.80;99.90;;;;;;5073569;28;20077;-67
2021/11/24 00:57:15;;;;;;;40.38;20.63;;;5.70;99.90;;;;;;5073337;28;20030;-67
2021/11/24 00:59:41;;;;;;;36.15;19.17;;;5.70;99.90;;;;;;5073542;28;20086;-66
2021/11/24 01:02:09;;;;;;;42.00;22.17;;;5.80;99.90;;;;;;5073279;28;20021;-67
2021/11/24 01:04:39;;;;;;;34.03;19.02;;;5.80;99.90;;;;;;5073394;28;20020;-66
2021/11/24 01:07:05;;;;;;;44.92;21.15;;;5.80;99.90;;;;;;5073561;28;20342;-66
2021/11/24 01:09:31;;;;;;;37.40;20.23;;;5.80;99.90;;;;;;5073216;28;20040;-67
2021/11/24 01:11:56;;;;;;;36.63;20.05;;;5.70;99.90;;;;;;5073264;28;20063;-66
2021/11/24 01:14:27;;;;;;;38.33;19.33;;;5.80;99.90;;;;;;5073533;28;20104;-67
2021/11/24 01:16:52;;;;;;;45.23;21.43;;;5.80;99.90;;;;;;5073684;28;20178;-67
2021/11/24 01:19:18;;;;;;;42.88;22.15;;;5.80;99.90;;;;;;5073407;28;20349;-66
2021/11/24 01:21:44;;;;;;;43.70;20.85;;;5.80;99.90;;;;;;5073301;28;20069;-67
2021/11/24 01:24:11;;;;;;;43.38;23.02;;;5.70;99.90;;;;;;5073394;28;20349;-67
2021/11/24 01:26:36;;;;;;;41.78;21.48;;;5.70;99.90;;;;;;5073238;28;20354;-67
2021/11/24 01:29:02;;;;;;;39.45;19.63;;;5.70;99.90;;;;;;5055673;28;20025;-67
2021/11/24 01:31:30;;;;;;;43.00;20.55;;;5.70;99.90;;;;;;5055370;28;20028;-67
2021/11/24 01:33:58;;;;;;;38.58;21.25;;;5.80;99.90;;;;;;5073243;28;20028;-66
2021/11/24 01:36:26;;;;;;;40.75;21.08;;;5.70;99.90;;;;;;5073162;28;20400;-66
2021/11/24 01:38:52;;;;;;;41.45;20.42;;;5.70;99.90;;;;;;5055363;28;20408;-67
2021/11/24 01:41:22;;;;;;;48.10;21.55;;;5.70;99.90;;;;;;5055488;28;20048;-67
2021/11/24 01:43:51;;;;;;;42.03;19.73;;;5.70;99.90;;;;;;5055343;28;20028;-66
2021/11/24 01:46:24;;;;;;;39.33;21.80;;;5.70;99.90;;;;;;5073028;28;20056;-66
2021/11/24 01:48:50;;;;;;;38.67;20.77;;;5.70;99.90;;;;;;5073200;28;20028;-67
2021/11/24 01:51:15;;;;;;;43.20;21.85;;;5.70;99.90;;;;;;5073077;28;20301;-65
2021/11/24 01:53:42;;;;;;;41.00;21.02;;;5.70;99.90;;;;;;5076659;28;20046;-67
2021/11/24 01:56:10;;;;;;;41.80;22.13;;;5.70;99.90;;;;;;5076500;28;20020;-66
2021/11/24 01:58:37;;;;;;;42.40;21.13;;;5.70;99.90;;;;;;5076975;28;20146;-67
2021/11/24 02:01:04;;;;;;;42.22;21.38;;;5.80;99.90;;;;;;5076515;28;20090;-67
2021/11/24 02:03:30;;;;;;;40.67;21.63;;;5.80;99.90;;;;;;5076870;28;20095;-65
2021/11/24 02:05:55;;;;;;;46.92;22.08;;;5.70;99.90;;;;;;5076775;28;20487;-67
2021/11/24 02:08:21;;;;;;;38.13;20.73;;;5.80;99.90;;;;;;5076578;28;20028;-65
2021/11/24 02:10:47;;;;;;;38.33;20.60;;;5.70;99.90;;;;;;5076586;28;20086;-64
2021/11/24 02:13:15;;;;;;;40.72;19.67;;;5.70;99.90;;;;;;5076325;28;20020;-65
2021/11/24 02:15:41;;;;;;;47.53;23.40;;;5.70;99.90;;;;;;5076300;28;20027;-65
2021/11/24 02:18:07;;;;;;;47.17;21.88;;;5.70;99.90;;;;;;5076167;28;20091;-66
2021/11/24 02:20:47;;;;;;;42.95;21.30;;;5.70;99.90;;;;;;5076477;28;20109;-65
2021/11/24 02:23:14;;;;;;;48.75;23.05;;;5.80;99.90;;;;;;5076436;28;20120;-66
2021/11/24 02:25:42;;;;;;;42.83;21.70;;;5.80;99.90;;;;;;5076515;28;20039;-66
2021/11/24 02:28:08;;;;;;;47.15;21.25;;;5.80;99.90;;;;;;5076240;28;20032;-66
2021/11/24 02:30:36;;;;;;;44.70;22.90;;;5.80;99.90;;;;;;5078371;28;20048;-66
2021/11/24 02:33:03;;;;;;;44.33;22.65;;;5.90;99.90;;;;;;5058428;28;20078;-66
2021/11/24 02:35:31;;;;;;;46.80;22.42;;;5.90;99.90;;;;;;5058683;28;20043;-66
2021/11/24 02:38:02;;;;;;;47.42;20.98;;;5.90;99.90;;;;;;5076028;28;20048;-65
2021/11/24 02:40:34;;;;;;;45.45;22.02;;;5.80;99.90;;;;;;5076161;28;20448;-66
2021/11/24 02:43:04;;;;;;;54.30;23.50;;;5.70;99.90;;;;;;5058153;28;20073;-66
2021/11/24 02:45:32;;;;;;;44.03;21.83;;;5.70;99.90;;;;;;5075975;28;20024;-67
2021/11/24 02:47:58;;;;;;;51.00;25.35;;;5.70;99.90;;;;;;5076054;28;20025;-66
2021/11/24 02:50:24;;;;;;;47.10;24.27;;;5.80;99.90;;;;;;5076110;28;20073;-66
2021/11/24 02:52:50;;;;;;;43.45;22.17;;;5.80;99.90;;;;;;5075587;28;20346;-65
2021/11/24 02:55:19;;;;;;;44.33;23.02;;;5.80;99.90;;;;;;5075784;28;20021;-66
2021/11/24 02:57:49;;;;;;;43.22;21.88;;;5.80;99.90;;;;;;5075709;28;20044;-66
2021/11/24 03:00:27;;;;;;;48.10;23.17;;;5.70;99.90;;;;;;5076795;28;20028;-66
2021/11/24 03:02:55;;;;;;;49.00;22.85;;;5.80;99.90;;;;;;5078138;28;20565;-66
2021/11/24 03:05:27;;;;;;;43.13;21.40;;;5.80;99.90;;;;;;5075673;28;20062;-66
2021/11/24 03:07:52;;;;;;;41.10;20.83;;;5.70;99.90;;;;;;5075663;28;20078;-66
2021/11/24 03:10:18;;;;;;;46.15;23.80;;;5.80;99.90;;;;;;5075405;28;20400;-66
2021/11/24 03:12:44;;;;;;;48.58;23.17;;;5.70;99.90;;;;;;5075459;28;20052;-66
2021/11/24 03:15:11;;;;;;;46.17;21.65;;;5.80;99.90;;;;;;5075362;28;20029;-66
2021/11/24 03:17:39;;;;;;;48.55;20.70;;;5.70;99.90;;;;;;5075587;28;20035;-66
2021/11/24 03:20:07;;;;;;;42.35;21.38;;;5.80;99.90;;;;;;5057871;28;20123;-66
2021/11/24 03:22:34;;;;;;;51.58;23.15;;;5.80;99.90;;;;;;5075631;28;20021;-66
2021/11/24 03:25:00;;;;;;;49.58;22.52;;;5.80;99.90;;;;;;5057977;28;20377;-66
2021/11/24 03:27:29;;;;;;;44.75;22.55;;;5.80;99.90;;;;;;5075219;28;20017;-66
2021/11/24 03:29:58;;;;;;;47.50;23.23;;;5.80;99.90;;;;;;5075389;28;20024;-68
2021/11/24 03:32:26;;;;;;;46.00;21.67;;;5.90;99.90;;;;;;5077912;28;20035;-66
2021/11/24 03:34:51;;;;;;;45.45;20.98;;;5.90;99.90;;;;;;5081336;28;20031;-66
2021/11/24 03:37:19;;;;;;;42.10;20.45;;;5.90;99.90;;;;;;5057428;28;20021;-66
2021/11/24 03:39:46;;;;;;;46.88;24.00;;;5.90;99.90;;;;;;5075137;28;20089;-68
2021/11/24 03:42:12;;;;;;;57.30;25.13;;;5.90;99.90;;;;;;5075047;28;20378;-66
2021/11/24 03:44:37;;;;;;;42.50;22.98;;;6.00;99.90;;;;;;5057435;28;20063;-66
2021/11/24 03:47:03;;;;;;;49.88;22.55;;;6.00;99.90;;;;;;5068421;28;20056;-66
2021/11/24 03:49:31;;;;;;;43.58;23.80;;;5.90;99.90;;;;;;5057132;28;20499;-69
2021/11/24 03:51:57;;;;;;;49.22;23.15;;;5.90;99.90;;;;;;5068237;28;20025;-66
2021/11/24 03:54:23;;;;;;;51.33;23.10;;;5.80;99.90;;;;;;5050291;28;20035;-66
2021/11/24 03:56:51;;;;;;;51.08;23.48;;;5.90;99.90;;;;;;5074445;28;20120;-65
2021/11/24 03:59:19;;;;;;;47.78;22.30;;;5.90;99.90;;;;;;5068696;28;20295;-66
2021/11/24 04:01:45;;;;;;;45.90;23.10;;;5.90;99.90;;;;;;5081393;28;20393;-65
2021/11/24 04:04:13;;;;;;;52.65;23.75;;;5.90;99.90;;;;;;5074918;28;20099;-66
2021/11/24 04:06:39;;;;;;;49.83;24.95;;;5.80;99.90;;;;;;5061254;28;20430;-66
2021/11/24 04:09:04;;;;;;;50.33;22.67;;;5.90;99.90;;;;;;5074473;28;20032;-66
2021/11/24 04:11:31;;;;;;;50.70;25.27;;;5.90;99.90;;;;;;5074315;28;20021;-66
2021/11/24 04:13:59;;;;;;;49.65;23.70;;;5.90;99.90;;;;;;5067626;28;20021;-66
2021/11/24 04:16:25;;;;;;;53.80;24.63;;;5.90;99.90;;;;;;5074034;28;20028;-65
2021/11/24 04:18:51;;;;;;;51.17;23.27;;;5.90;99.90;;;;;;5074442;28;20085;-66
2021/11/24 04:21:17;;;;;;;49.42;23.08;;;5.90;99.90;;;;;;5074216;28;20032;-65
2021/11/24 04:23:44;;;;;;;46.72;23.75;;;5.90;99.90;;;;;;5056561;28;20028;-66
2021/11/24 04:26:10;;;;;;;55.45;24.55;;;5.90;99.90;;;;;;5069305;28;20021;-66
2021/11/24 04:28:38;;;;;;;48.28;24.67;;;6.00;99.90;;;;;;5071980;28;20419;-68
2021/11/24 04:31:09;;;;;;;44.45;21.92;;;5.90;99.90;;;;;;5073732;28;20081;-65
2021/11/24 04:33:35;;;;;;;50.67;23.90;;;5.90;99.90;;;;;;5074092;28;20208;-68
2021/11/24 04:36:06;;;;;;;52.92;27.02;;;5.90;99.90;;;;;;5067799;28;20013;-66
2021/11/24 04:38:32;;;;;;;47.83;22.50;;;5.90;99.90;;;;;;5073980;28;20029;-65
2021/11/24 04:40:58;;;;;;;47.33;22.98;;;5.90;99.90;;;;;;5073798;28;20051;-66
2021/11/24 04:43:29;;;;;;;52.28;25.67;;;5.90;99.90;;;;;;5056035;28;20067;-66
2021/11/24 04:45:55;;;;;;;49.72;24.38;;;6.00;99.90;;;;;;5073875;28;20092;-65
2021/11/24 04:48:23;;;;;;;46.80;23.17;;;5.90;99.90;;;;;;5073983;28;20025;-63
2021/11/24 04:50:49;;;;;;;42.75;22.45;;;5.90;99.90;;;;;;5073571;28;20174;-66
2021/11/24 04:53:14;;;;;;;43.78;21.48;;;5.90;99.90;;;;;;5073798;28;20107;-66
2021/11/24 04:55:45;;;;;;;51.55;24.35;;;5.90;99.90;;;;;;5073607;28;20103;-67
2021/11/24 04:58:13;;;;;;;46.10;22.47;;;5.90;99.90;;;;;;5073653;28;20433;-67
2021/11/24 05:00:39;;;;;;;46.63;22.83;;;5.80;99.90;;;;;;5056165;28;20346;-67
2021/11/24 05:03:05;;;;;;;41.97;19.60;;;5.90;99.90;;;;;;5073257;28;20028;-66
2021/11/24 05:05:33;;;;;;;42.15;22.52;;;5.90;99.90;;;;;;5073382;28;20039;-67
2021/11/24 05:07:59;;;;;;;45.95;23.33;;;5.90;99.90;;;;;;5073404;28;20029;-67
2021/11/24 05:10:26;;;;;;;47.70;23.60;;;5.80;99.90;;;;;;5055248;28;20043;-67
2021/11/24 05:12:54;;;;;;;42.50;22.02;;;5.90;99.90;;;;;;5073109;28;20028;-65
2021/11/24 05:15:26;;;;;;;46.50;20.75;;;5.90;99.90;;;;;;5073276;28;20024;-67
2021/11/24 05:17:57;;;;;;;45.00;21.80;;;5.90;99.90;;;;;;5073501;28;20036;-66
2021/11/24 05:20:25;;;;;;;40.78;20.35;;;5.90;99.90;;;;;;5055680;28;20123;-66
2021/11/24 05:22:54;;;;;;;44.35;20.60;;;5.80;99.90;;;;;;5073476;28;20059;-67
2021/11/24 05:25:20;;;;;;;47.97;21.25;;;5.80;99.90;;;;;;5073102;28;20036;-65
2021/11/24 05:27:50;;;;;;;40.75;20.02;;;5.80;99.90;;;;;;5077226;28;20024;-67
2021/11/24 05:30:16;;;;;;;46.50;22.15;;;5.80;99.90;;;;;;5078649;28;20032;-67
2021/11/24 05:32:41;;;;;;;38.38;19.38;;;5.90;99.90;;;;;;5080044;28;20021;-66
2021/11/24 05:35:07;;;;;;;46.70;21.10;;;5.90;99.90;;;;;;5077443;28;20024;-66
2021/11/24 05:37:36;;;;;;;43.63;22.10;;;5.80;99.90;;;;;;5077302;28;20017;-67
2021/11/24 05:40:05;;;;;;;49.28;22.13;;;5.80;99.90;;;;;;5077456;28;20039;-67
2021/11/24 05:42:31;;;;;;;47.65;21.35;;;5.80;99.90;;;;;;5077138;28;20398;-67
2021/11/24 05:45:11;;;;;;;42.55;20.60;;;5.90;99.90;;;;;;5077512;28;20402;-66
2021/11/24 05:47:53;;;;;;;43.83;21.55;;;5.90;99.90;;;;;;5077038;28;20032;-67
2021/11/24 05:50:21;;;;;;;40.03;20.88;;;5.80;99.90;;;;;;5077083;28;20031;-66
2021/11/24 05:52:47;;;;;;;46.88;22.45;;;5.90;99.90;;;;;;5077302;28;20025;-67
2021/11/24 05:55:15;;;;;;;51.88;22.40;;;5.80;99.90;;;;;;5077133;28;20027;-67
2021/11/24 05:57:45;;;;;;;39.35;20.00;;;5.90;99.90;;;;;;5076536;28;20385;-67
2021/11/24 06:00:11;;;;;;;42.15;21.23;;;5.90;99.90;;;;;;5053131;28;20513;-67
2021/11/24 06:02:37;;;;;;;46.50;21.30;;;6.00;99.90;;;;;;5078320;28;20107;-65
2021/11/24 06:05:03;;;;;;;33.03;17.52;;;5.90;99.90;;;;;;5076818;28;20222;-68
2021/11/24 06:07:29;;;;;;;40.67;20.10;;;5.90;99.90;;;;;;5076766;28;20036;-66
2021/11/24 06:09:57;;;;;;;35.85;18.88;;;6.00;99.90;;;;;;5052031;28;20037;-65
2021/11/24 06:12:24;;;;;;;35.38;18.05;;;6.00;99.90;;;;;;5076666;28;20033;-66
2021/11/24 06:14:50;;;;;;;44.92;21.75;;;5.90;99.90;;;;;;5076507;28;20021;-67
2021/11/24 06:17:18;;;;;;;40.70;20.55;;;6.00;99.90;;;;;;5076447;28;20035;-65
2021/11/24 06:19:46;;;;;;;43.17;21.90;;;6.00;99.90;;;;;;5071855;28;20029;-66
2021/11/24 06:22:12;;;;;;;43.20;21.27;;;6.00;99.90;;;;;;5074817;28;20446;-66
2021/11/24 06:24:38;;;;;;;40.03;20.55;;;6.00;99.90;;;;;;5076488;28;20043;-66
2021/11/24 06:27:04;;;;;;;39.80;20.38;;;6.00;99.90;;;;;;5058374;28;20028;-66
2021/11/24 06:29:34;;;;;;;40.92;19.65;;;6.00;99.90;;;;;;5076343;28;20035;-67
2021/11/24 06:32:00;;;;;;;42.50;20.20;;;5.90;99.90;;;;;;5074192;28;20090;-68
2021/11/24 06:34:26;;;;;;;42.40;20.92;;;6.00;99.90;;;;;;5076290;28;20021;-67
2021/11/24 06:36:53;;;;;;;40.97;20.75;;;6.00;99.90;;;;;;5075883;28;20025;-68
2021/11/24 06:39:20;;;;;;;43.88;21.48;;;6.00;99.90;;;;;;5075276;28;20124;-66
2021/11/24 06:41:46;;;;;;;39.20;18.27;;;6.00;99.90;;;;;;5075942;28;20029;-67
2021/11/24 06:44:12;;;;;;;38.53;19.38;;;5.90;99.90;;;;;;5076041;28;20055;-67
2021/11/24 06:46:41;;;;;;;43.63;21.30;;;6.10;99.90;;;;;;5075831;28;20028;-66
2021/11/24 06:49:07;;;;;;;42.10;20.10;;;6.30;99.90;;;;;;5076143;28;20048;-67
2021/11/24 06:51:33;;;;;;;41.33;21.15;;;6.20;99.90;;;;;;5075831;28;20028;-66
2021/11/24 06:53:59;;;;;;;38.28;20.05;;;6.30;99.90;;;;;;5073289;28;20017;-67
2021/11/24 06:56:24;;;;;;;42.20;20.17;;;6.10;99.90;;;;;;5076008;28;20035;-66
2021/11/24 06:58:50;;;;;;;36.60;19.80;;;6.10;99.90;;;;;;5076127;28;20037;-67
2021/11/24 07:01:16;;;;;;;42.33;21.75;;;6.00;99.90;;;;;;5077836;28;20020;-67
2021/11/24 07:03:42;;;;;;;39.47;20.77;;;6.00;99.90;;;;;;5058402;28;20048;-66
2021/11/24 07:06:07;;;;;;;40.08;21.00;;;6.00;99.90;;;;;;5075738;28;20051;-67
2021/11/24 07:08:33;;;;;;;42.33;20.40;;;6.10;99.90;;;;;;5058192;28;20037;-65
2021/11/24 07:10:59;;;;;;;37.88;18.90;;;6.20;99.90;;;;;;5051689;28;20093;-68
2021/11/24 07:13:24;;;;;;;41.75;20.70;;;6.20;99.90;;;;;;5076008;28;20056;-65
2021/11/24 07:15:50;;;;;;;37.25;17.05;;;6.10;99.90;;;;;;5075747;28;20383;-66
2021/11/24 07:18:18;;;;;;;38.15;18.45;;;6.20;99.90;;;;;;5058179;28;20044;-67
2021/11/24 07:20:44;;;;;;;43.40;20.10;;;6.10;99.90;;;;;;5075621;28;20025;-66
2021/11/24 07:23:09;;;;;;;34.30;17.40;;;6.10;99.90;;;;;;5075689;28;20323;-66
2021/11/24 07:25:35;;;;;;;35.75;17.80;;;6.10;99.90;;;;;;5075498;28;20021;-67
2021/11/24 07:28:01;;;;;;;40.40;18.30;;;6.10;99.90;;;;;;5068640;28;20032;-66
2021/11/24 07:30:29;;;;;;;44.10;20.27;;;6.20;99.90;;;;;;5078321;28;20067;-69
2021/11/24 07:32:55;;;;;;;36.13;17.70;;;6.20;99.90;;;;;;5053577;28;20071;-66
2021/11/24 07:35:21;;;;;;;34.80;17.42;;;6.20;99.90;;;;;;5075424;28;20064;-67
2021/11/24 07:37:49;;;;;;;34.50;17.55;;;6.20;99.90;;;;;;5057857;28;20016;-68
2021/11/24 07:40:19;;;;;;;34.03;17.55;;;6.20;99.90;;;;;;5058342;28;20430;-67
2021/11/24 07:42:50;;;;;;;31.55;16.40;;;6.20;99.90;;;;;;5077910;28;20443;-66
2021/11/24 07:45:16;;;;;;;38.10;19.95;;;6.20;99.90;;;;;;5057232;28;20051;-69
2021/11/24 07:47:42;;;;;;;36.95;18.00;;;6.20;99.90;;;;;;5055148;28;20452;-69
2021/11/24 07:50:08;;;;;;;28.63;15.73;;;6.20;99.90;;;;;;5073354;28;20028;-69
2021/11/24 07:52:36;;;;;;;38.40;18.35;;;6.30;99.90;;;;;;5074606;28;20544;-69
2021/11/24 07:55:03;;;;;;;30.17;16.58;;;6.30;99.90;;;;;;5074745;28;20009;-69
2021/11/24 07:57:29;;;;;;;32.47;16.27;;;6.30;99.90;;;;;;5073703;28;20029;-67
2021/11/24 07:59:55;;;;;;;34.90;16.25;;;6.40;99.90;;;;;;5075004;28;20929;-65
2021/11/24 08:02:23;;;;;;;32.15;16.08;;;6.40;99.90;;;;;;5077193;28;20082;-63
2021/11/24 08:04:51;;;;;;;33.22;16.70;;;6.40;99.90;;;;;;5068491;28;20059;-61
2021/11/24 08:07:17;;;;;;;33.47;17.30;;;6.40;99.90;;;;;;5056011;28;20361;-61
2021/11/24 08:09:48;;;;;;;29.25;15.35;;;6.50;99.90;;;;;;5073800;28;20028;-61
2021/11/24 08:12:16;;;;;;;33.15;16.48;;;6.50;99.90;;;;;;5056071;28;20078;-62
2021/11/24 08:14:41;;;;;;;31.15;16.75;;;6.60;99.90;;;;;;5074163;28;20029;-62
2021/11/24 08:17:09;;;;;;;34.83;18.45;;;6.60;99.90;;;;;;5074017;28;20154;-61
2021/11/24 08:19:37;;;;;;;28.70;14.80;;;6.60;99.90;;;;;;5068277;28;20446;-61
2021/11/24 08:22:06;;;;;;;31.27;14.38;;;6.70;99.90;;;;;;5049301;28;20430;-62
2021/11/24 08:24:31;;;;;;;30.70;15.70;;;6.80;99.90;;;;;;5074920;28;20434;-62
2021/11/24 08:26:57;;;;;;;25.33;13.60;;;6.70;99.90;;;;;;5076217;28;20026;-63
2021/11/24 08:29:25;;;;;;;30.60;15.38;;;6.80;99.90;;;;;;5081606;28;20024;-61
2021/11/24 08:31:50;;;;;;;29.77;15.00;;;6.70;99.90;;;;;;5079474;28;20338;-62
2021/11/24 08:34:16;;;;;;;30.80;16.67;;;6.80;99.90;;;;;;5073479;28;20017;-62
2021/11/24 08:36:42;;;;;;;26.30;15.98;;;6.80;99.90;;;;;;5072805;28;20050;-62
2021/11/24 08:39:08;;;;;;;33.83;16.25;;;6.80;99.90;;;;;;5072802;28;20028;-61
2021/11/24 08:41:34;;;;;;;28.50;15.30;;;6.90;99.90;;;;;;5073131;28;20033;-62
2021/11/24 08:44:00;;;;;;;31.95;15.95;;;7.00;99.90;;;;;;5073557;28;20039;-60
2021/11/24 08:46:26;;;;;;;29.30;15.05;;;7.00;99.90;;;;;;5073760;28;20048;-63
2021/11/24 08:48:52;;;;;;;32.70;17.10;;;7.00;99.90;;;;;;5073013;28;20052;-62
2021/11/24 08:51:20;;;;;;;25.83;15.85;;;7.10;99.90;;;;;;5077817;28;20047;-62
2021/11/24 08:53:48;;;;;;;29.77;17.67;;;7.10;99.90;;;;;;5055317;28;20024;-63
2021/11/24 08:56:16;;;;;;;27.38;15.50;;;7.20;99.90;;;;;;5058169;28;20071;-62
2021/11/24 08:58:44;;;;;;;30.58;16.30;;;7.60;99.90;;;;;;5083130;28;20016;-61
2021/11/24 09:01:12;;;;;;;29.38;16.38;;;7.20;99.90;;;;;;5074956;28;20111;-61
2021/11/24 09:03:38;;;;;;;31.33;16.63;;;7.30;99.90;;;;;;5073381;28;20074;-62
2021/11/24 09:06:05;;;;;;;30.95;16.02;;;7.30;99.90;;;;;;5069225;28;20036;-62
2021/11/24 09:08:31;;;;;;;34.67;15.38;;;7.40;99.90;;;;;;5074479;28;20016;-62
2021/11/24 09:10:57;;;;;;;33.53;16.50;;;7.30;99.90;;;;;;5069546;28;20055;-62
2021/11/24 09:13:24;;;;;;;30.40;15.45;;;7.40;99.90;;;;;;5053077;28;20372;-62
2021/11/24 09:15:50;;;;;;;27.95;15.23;;;7.40;99.90;;;;;;5052439;28;20037;-62
2021/11/24 09:18:16;;;;;;;27.73;15.00;;;7.40;99.90;;;;;;5052782;28;20025;-63
2021/11/24 09:20:43;;;;;;;31.15;14.73;;;7.40;99.90;;;;;;5052563;28;20096;-63
2021/11/24 09:23:09;;;;;;;29.15;15.50;;;7.40;99.90;;;;;;5053985;28;20027;-62
2021/11/24 09:25:47;;;;;;;29.50;16.02;;;7.50;99.90;;;;;;5052653;28;20063;-60
2021/11/24 09:28:14;;;;;;;31.70;16.15;;;7.50;99.90;;;;;;5057907;28;20028;-61
2021/11/24 09:30:40;;;;;;;30.42;16.77;;;7.50;99.90;;;;;;5061442;28;20043;-62
2021/11/24 09:33:09;;;;;;;25.70;14.98;;;7.50;99.90;;;;;;5054860;28;20371;-62
2021/11/24 09:35:35;;;;;;;28.20;16.55;;;7.60;99.90;;;;;;5052557;28;20591;-63
2021/11/24 09:38:01;;;;;;;32.72;17.35;;;7.70;99.90;;;;;;5052507;28;20029;-63
2021/11/24 09:40:28;;;;;;;26.63;15.05;;;7.70;99.90;;;;;;5052045;28;20040;-64
2021/11/24 09:43:00;;;;;;;31.40;16.83;;;7.80;99.90;;;;;;5053418;28;20021;-62
2021/11/24 09:45:27;;;;;;;29.77;15.57;;;7.70;99.90;;;;;;5034061;28;20051;-62
2021/11/24 09:47:59;;;;;;;27.42;15.75;;;7.80;99.90;;;;;;5046249;28;20025;-61
2021/11/24 09:50:27;;;;;;;26.77;15.75;;;7.90;99.90;;;;;;5056110;28;20484;-63
2021/11/24 09:52:57;;;;;;;25.42;14.18;;;7.90;99.90;;;;;;5048545;28;20107;-64
2021/11/24 09:55:36;;;;;;;27.77;14.50;;;7.90;99.90;;;;;;5050263;28;20077;-62
2021/11/24 09:58:03;;;;;;;25.75;14.05;;;7.90;99.90;;;;;;5043430;28;20067;-62
2021/11/24 10:00:28;;;;;;;28.35;16.90;;;8.10;99.90;;;;;;5051230;28;20040;-62
2021/11/24 10:02:56;;;;;;;24.15;13.77;;;8.10;99.90;;;;;;5059332;28;20025;-61
2021/11/24 10:05:23;;;;;;;23.35;13.25;;;8.20;99.90;;;;;;5057808;28;20087;-62
2021/11/24 10:07:51;;;;;;;26.08;14.75;;;8.30;99.90;;;;;;5045536;28;20319;-63
2021/11/24 10:10:20;;;;;;;25.67;14.00;;;8.40;99.90;;;;;;5036588;28;20060;-61
2021/11/24 10:12:48;;;;;;;27.33;14.05;;;8.40;99.90;;;;;;5048919;28;20619;-61
2021/11/24 10:15:35;;;;;;;27.17;14.20;;;8.50;99.90;;;;;;5055011;28;20021;-62
2021/11/24 10:18:24;;;;;;;28.75;13.82;;;8.60;99.90;;;;;;5051408;28;20017;-63
2021/11/24 10:20:58;;;;;;;26.33;13.82;;;8.60;99.90;;;;;;5055721;28;20048;-64
2021/11/24 10:23:34;;;;;;;24.45;13.32;;;8.70;99.90;;;;;;5055434;28;20029;-63
2021/11/24 10:26:16;;;;;;;27.17;14.07;;;8.70;99.90;;;;;;5050816;28;20103;-63
2021/11/24 10:28:55;;;;;;;20.88;11.82;;;8.80;99.90;;;;;;5055379;28;20029;-62
2021/11/24 10:31:35;;;;;;;25.95;13.90;;;9.00;99.90;;;;;;5061323;28;20028;-62
2021/11/24 10:34:11;;;;;;;22.20;13.55;;;9.10;99.90;;;;;;5059290;28;20021;-62
2021/11/24 10:37:06;;;;;;;22.75;13.82;;;9.20;99.90;;;;;;5054571;28;20032;-61
2021/11/24 10:39:53;;;;;;;24.70;13.98;;;9.30;99.90;;;;;;5052892;28;20519;-63
2021/11/24 10:42:24;;;;;;;23.77;13.35;;;9.40;99.90;;;;;;5061445;28;20029;-63
2021/11/24 10:45:06;;;;;;;28.43;15.50;;;9.50;99.90;;;;;;5055618;28;20089;-64
2021/11/24 10:47:32;;;;;;;25.08;13.52;;;9.50;99.90;;;;;;5050759;28;20079;-61
2021/11/24 10:50:05;;;;;;;26.48;14.30;;;9.40;99.90;;;;;;5053547;28;20427;-62
2021/11/24 10:52:35;;;;;;;24.70;13.85;;;9.40;99.90;;;;;;5055325;28;20025;-62
2021/11/24 10:55:06;;;;;;;24.13;12.75;;;9.50;99.90;;;;;;5055423;28;20029;-63
2021/11/24 10:57:35;;;;;;;23.15;13.82;;;9.50;99.90;;;;;;5056370;28;20056;-63
2021/11/24 11:00:16;;;;;;;23.02;14.23;;;9.50;99.90;;;;;;5055378;28;20893;-63
2021/11/24 11:02:47;;;;;;;23.40;11.90;;;9.50;99.90;;;;;;5054881;28;20029;-63
2021/11/24 11:05:15;;;;;;;;;;;9.60;99.90;;;;;;5058976;28;20032;-63
2021/11/24 11:07:54;;;;;;;23.90;13.50;;;9.70;99.90;;;;;;5062180;28;19981;-64
2021/11/24 11:10:23;;;;;;;22.85;12.05;;;9.80;99.90;;;;;;5048140;28;20071;-62
2021/11/24 11:12:53;;;;;;;23.75;13.40;;;9.90;99.90;;;;;;5057577;28;20025;-62
2021/11/24 11:15:28;;;;;;;23.97;13.40;;;9.90;99.90;;;;;;5053942;28;20013;-61
2021/11/24 11:18:00;;;;;;;19.80;10.63;;;9.90;99.90;;;;;;5051697;28;20473;-62
2021/11/24 11:20:33;;;;;;;16.92;9.50;;;10.10;99.90;;;;;;5052096;28;20055;-63
2021/11/24 11:23:09;;;;;;;17.63;8.27;;;10.20;99.90;;;;;;5052328;28;20021;-61
2021/11/24 11:25:50;;;;;;;16.02;9.82;;;10.20;99.90;;;;;;5054692;28;20045;-66
2021/11/24 11:28:17;;;;;;;15.77;8.52;;;10.20;99.90;;;;;;5054627;28;20040;-62
2021/11/24 11:30:46;;;;;;;13.85;7.45;;;10.30;99.90;;;;;;5055648;28;20017;-60
2021/11/24 11:33:15;;;;;;;11.90;7.70;;;10.30;99.90;;;;;;5054627;28;20360;-62
2021/11/24 11:35:42;;;;;;;11.63;7.32;;;10.40;99.90;;;;;;5061098;28;20016;-64
2021/11/24 11:38:09;;;;;;;17.30;7.63;;;10.40;99.90;;;;;;5058568;28;20399;-61
2021/11/24 11:40:40;;;;;;;9.52;5.80;;;10.30;99.90;;;;;;5053570;28;20036;-61
2021/11/24 11:43:09;;;;;;;10.98;6.70;;;10.30;99.90;;;;;;5048652;28;20025;-67
2021/11/24 11:45:37;;;;;;;7.15;4.63;;;10.30;99.90;;;;;;5044297;28;20029;-61
2021/11/24 11:48:08;;;;;;;10.23;6.45;;;10.20;99.90;;;;;;5053703;28;20139;-62
2021/11/24 11:50:48;;;;;;;;;;;10.10;99.90;;;;;;5054064;28;20393;-65
2021/11/24 11:53:32;;;;;;;10.02;5.60;;;9.90;99.90;;;;;;5051424;28;19951;-63
2021/11/24 11:56:10;;;;;;;10.23;6.65;;;9.90;99.90;;;;;;5056422;28;20429;-66
2021/11/24 11:58:57;;;;;;;8.43;5.10;;;9.70;99.90;;;;;;5054218;28;20021;-68
2021/11/24 12:01:40;;;;;;;9.98;5.20;;;9.60;99.90;;;;;;5048309;28;20060;-60
2021/11/24 12:04:22;;;;;;;9.35;5.40;;;9.50;99.90;;;;;;5053373;28;20037;-63
2021/11/24 12:06:48;;;;;;;15.98;5.38;;;9.30;99.90;;;;;;5054763;28;20029;-62
2021/11/24 12:09:32;;;;;;;9.30;5.22;;;9.20;99.90;;;;;;5063109;28;20036;-60
2021/11/24 12:12:12;;;;;;;7.28;4.40;;;9.30;99.90;;;;;;5058942;28;20158;-62
2021/11/24 12:14:56;;;;;;;7.10;3.88;;;9.30;99.90;;;;;;5053957;28;20049;-62
2021/11/24 12:17:33;;;;;;;5.55;3.03;;;9.30;99.90;;;;;;5055697;28;20025;-62
2021/11/24 12:20:15;;;;;;;6.72;3.50;;;9.30;99.90;;;;;;5036297;28;20392;-62
2021/11/24 12:22:56;;;;;;;2.83;1.83;;;9.40;99.90;;;;;;5059729;28;20625;-63
2021/11/24 12:25:27;;;;;;;;;;;9.50;99.90;;;;;;5054122;28;20086;-61
2021/11/24 12:27:53;;;;;;;2.47;1.67;;;9.40;99.90;;;;;;5056475;28;19916;-62
2021/11/24 12:30:40;;;;;;;2.03;1.65;;;9.40;99.90;;;;;;5055244;28;20029;-61
2021/11/24 12:33:20;;;;;;;2.38;1.58;;;9.40;99.90;;;;;;5054715;28;20017;-61
2021/11/24 12:35:55;;;;;;;2.83;1.50;;;9.50;99.90;;;;;;5052983;28;20075;-61
2021/11/24 12:38:24;;;;;;;2.83;2.20;;;9.60;99.90;;;;;;5053381;28;20028;-62
2021/11/24 12:40:59;;;;;;;2.90;1.42;;;9.60;99.90;;;;;;5040239;28;20117;-62
2021/11/24 12:43:28;;;;;;;2.50;1.63;;;9.60;99.90;;;;;;5054426;28;20029;-61
2021/11/24 12:45:59;;;;;;;2.38;1.58;;;9.50;99.80;;;;;;5053404;28;20032;-62